Time;durP1;ratioP1;P1;durP2;ratioP2;P2;SDS_P1;SDS_P2;PMS_P1;PMS_P2;Temp;Humidity;BMP_temperature;BMP_pressure;BME280_temperature;BME280_humidity;BME280_pressure;Samples;Min_cycle;Max_cycle;Signal;HPM_P1;HPM_P2
2023/01/16 00:01:38;;;;;;;8.83;4.43;;;;;;;3.52;100.00;98746.56;4209803;28;20312;-69
2023/01/16 00:04:04;;;;;;;9.87;4.10;;;;;;;3.55;100.00;98745.44;4209919;28;23407;-65
2023/01/16 00:06:31;;;;;;;10.07;3.90;;;;;;;3.52;100.00;98743.91;4213781;28;21220;-68
2023/01/16 00:08:58;;;;;;;9.60;4.57;;;;;;;3.49;100.00;98736.31;4211168;28;20417;-65
2023/01/16 00:11:24;;;;;;;10.60;5.23;;;;;;;3.48;100.00;98739.09;4213683;28;23018;-68
2023/01/16 00:13:51;;;;;;;8.70;4.10;;;;;;;3.46;100.00;98735.75;4212829;28;20267;-65
2023/01/16 00:16:19;;;;;;;8.27;4.27;;;;;;;3.45;100.00;98736.75;4217388;28;20645;-66
2023/01/16 00:18:46;;;;;;;10.43;4.77;;;;;;;3.42;100.00;98731.75;4215436;28;20647;-67
2023/01/16 00:21:12;;;;;;;10.10;4.43;;;;;;;3.41;100.00;98738.00;4212754;28;20615;-67
2023/01/16 00:23:39;;;;;;;9.50;4.17;;;;;;;3.38;100.00;98739.09;4221018;28;20310;-64
2023/01/16 00:26:09;;;;;;;7.63;4.50;;;;;;;3.36;100.00;98741.03;4212787;28;21712;-66
2023/01/16 00:28:39;;;;;;;10.37;4.63;;;;;;;3.30;100.00;98742.44;4206665;28;20404;-65
2023/01/16 00:31:06;;;;;;;8.50;4.57;;;;;;;3.25;100.00;98744.66;4209809;28;20407;-69
2023/01/16 00:33:33;;;;;;;10.07;4.87;;;;;;;3.29;100.00;98740.78;4210115;28;20301;-65
2023/01/16 00:36:00;;;;;;;9.23;4.70;;;;;;;3.28;100.00;98748.81;4213206;28;20647;-65
2023/01/16 00:38:27;;;;;;;12.50;5.93;;;;;;;3.19;100.00;98755.75;4220502;28;20302;-65
2023/01/16 00:40:54;;;;;;;10.70;5.40;;;;;;;3.13;100.00;98751.03;4211606;28;20238;-67
2023/01/16 00:43:21;;;;;;;8.57;5.20;;;;;;;3.12;100.00;98744.13;4221354;28;20330;-67
2023/01/16 00:45:47;;;;;;;10.87;5.53;;;;;;;3.14;100.00;98752.69;4218415;28;20389;-65
2023/01/16 00:48:14;;;;;;;13.47;5.63;;;;;;;3.19;100.00;98753.09;4207797;28;21392;-64
2023/01/16 00:50:41;;;;;;;10.73;5.10;;;;;;;3.25;100.00;98757.78;4214980;28;21057;-64
2023/01/16 00:53:07;;;;;;;9.70;4.87;;;;;;;3.28;100.00;98760.16;4220861;28;20405;-66
2023/01/16 00:55:36;;;;;;;9.80;4.47;;;;;;;3.30;100.00;98754.75;4214433;28;21214;-64
2023/01/16 00:58:03;;;;;;;9.67;4.63;;;;;;;3.28;100.00;98754.06;4213470;28;20240;-65
2023/01/16 01:00:30;;;;;;;11.53;4.57;;;;;;;3.30;100.00;98755.59;4209138;28;20238;-66
2023/01/16 01:02:57;;;;;;;9.17;4.47;;;;;;;3.24;100.00;98761.41;4214680;28;20232;-66
2023/01/16 01:05:23;;;;;;;10.40;4.47;;;;;;;3.20;100.00;98751.31;4215708;28;20220;-64
2023/01/16 01:07:50;;;;;;;9.23;4.53;;;;;;;3.28;100.00;98760.16;4214505;28;20305;-66
2023/01/16 01:10:17;;;;;;;9.40;4.57;;;;;;;3.17;100.00;98752.41;4217762;28;20661;-65
2023/01/16 01:12:44;;;;;;;9.40;4.77;;;;;;;3.28;100.00;98760.16;4214080;28;20823;-66
2023/01/16 01:15:10;;;;;;;9.30;4.83;;;;;;;3.22;100.00;98759.88;4214694;28;20424;-65
2023/01/16 01:17:37;;;;;;;10.23;4.50;;;;;;;3.27;100.00;98753.22;4220364;28;20270;-67
2023/01/16 01:20:04;;;;;;;7.73;4.30;;;;;;;3.13;100.00;98751.03;4226575;28;20834;-68
2023/01/16 01:22:31;;;;;;;12.73;4.97;;;;;;;3.21;100.00;98747.69;4214238;28;22879;-64
2023/01/16 01:24:58;;;;;;;8.17;4.57;;;;;;;3.24;100.00;98747.44;4216175;28;20259;-64
2023/01/16 01:27:24;;;;;;;7.87;4.43;;;;;;;3.12;100.00;98750.19;4211770;28;20224;-68
2023/01/16 01:29:51;;;;;;;9.03;4.80;;;;;;;3.04;100.00;98749.22;4210277;28;20251;-65
2023/01/16 01:32:18;;;;;;;11.97;4.83;;;;;;;3.10;100.00;98746.06;4215257;28;21061;-67
2023/01/16 01:34:45;;;;;;;10.23;4.40;;;;;;;3.07;100.00;98751.59;4213710;28;20233;-66
2023/01/16 01:37:11;;;;;;;8.73;4.83;;;;;;;3.03;100.00;98745.78;4208289;28;22875;-65
2023/01/16 01:39:38;;;;;;;10.80;4.60;;;;;;;2.99;100.00;98744.38;4226162;28;20592;-65
2023/01/16 01:44:57;;;;;;;11.73;4.50;;;;;;;3.02;100.00;98743.28;4210406;28;20345;-65
2023/01/16 01:47:28;;;;;;;8.87;4.30;;;;;;;3.07;100.00;98744.53;4215222;28;20227;-67
2023/01/16 01:49:56;;;;;;;10.20;4.57;;;;;;;3.04;100.00;98739.53;4228428;28;20597;-65
2023/01/16 01:52:23;;;;;;;9.67;4.67;;;;;;;2.98;100.00;98731.41;4199764;28;20238;-68
2023/01/16 01:54:55;;;;;;;8.93;4.57;;;;;;;2.90;100.00;98730.31;4225459;28;20344;-67
2023/01/16 01:57:31;;;;;;;8.53;4.60;;;;;;;2.93;100.00;98734.44;4214585;28;21444;-65
2023/01/16 02:00:02;;;;;;;9.90;4.60;;;;;;;2.93;100.00;98730.03;4204736;28;20255;-63
2023/01/16 02:02:34;;;;;;;11.60;4.47;;;;;;;3.01;100.00;98726.69;4216718;28;22598;-66
2023/01/16 02:05:04;;;;;;;11.57;5.00;;;;;;;2.99;100.00;98733.88;4219181;28;20433;-66
2023/01/16 02:07:31;;;;;;;11.50;4.60;;;;;;;2.94;100.00;98729.03;4215022;28;20528;-67
2023/01/16 02:10:17;;;;;;;7.13;4.30;;;;;;;2.88;100.00;98732.25;4216401;28;20235;-67
2023/01/16 02:12:45;;;;;;;11.37;4.60;;;;;;;2.87;100.00;98737.63;4223068;28;20372;-65
2023/01/16 02:15:11;;;;;;;9.87;4.10;;;;;;;2.80;100.00;98732.09;4214434;28;20288;-64
2023/01/16 02:20:31;;;;;;;9.73;4.83;;;;;;;2.70;100.00;98723.38;4239254;28;21454;-67
2023/01/16 02:23:09;;;;;;;9.60;4.67;;;;;;;2.69;100.00;98727.81;4223636;28;20401;-66
2023/01/16 02:26:03;;;;;;;11.73;5.03;;;;;;;2.72;100.00;98721.44;4208445;28;20236;-67
2023/01/16 02:28:41;;;;;;;9.93;4.60;;;;;;;2.63;100.00;98722.28;4227180;28;21022;-66
2023/01/16 02:31:19;;;;;;;10.30;4.80;;;;;;;2.62;100.00;98720.59;4215828;28;20333;-67
2023/01/16 02:34:10;;;;;;;10.03;4.63;;;;;;;2.57;100.00;98717.56;4213994;28;20235;-65
2023/01/16 02:37:08;;;;;;;11.23;4.87;;;;;;;2.49;100.00;98715.63;4215087;28;20240;-64
2023/01/16 02:39:42;;;;;;;13.00;5.00;;;;;;;2.46;100.00;98715.91;4233948;28;21388;-67
2023/01/16 02:42:29;;;;;;;9.13;4.90;;;;;;;2.51;100.00;98717.13;4201250;28;20952;-65
2023/01/16 02:45:10;;;;;;;10.97;5.03;;;;;;;2.49;100.00;98716.44;4204313;28;20782;-66
2023/01/16 02:47:57;;;;;;;10.50;5.43;;;;;;;2.38;100.00;98713.94;4213127;28;20231;-65
2023/01/16 02:50:36;;;;;;;10.80;5.30;;;;;;;2.37;100.00;98709.66;4229093;28;20337;-65
2023/01/16 02:53:14;;;;;;;8.73;4.87;;;;;;;2.26;100.00;98715.84;4218646;28;20295;-65
2023/01/16 02:55:50;;;;;;;11.70;5.30;;;;;;;2.28;100.00;98706.03;4219633;28;21217;-66
2023/01/16 02:58:18;;;;;;;10.67;5.03;;;;;;;2.27;100.00;98703.53;4206827;28;20277;-67
2023/01/16 03:00:50;;;;;;;11.73;5.47;;;;;;;2.30;100.00;98711.16;4210098;28;20285;-65
2023/01/16 03:03:31;;;;;;;14.70;5.63;;;;;;;2.23;100.00;98704.78;4215018;28;23899;-66
2023/01/16 03:06:06;;;;;;;11.07;5.67;;;;;;;2.19;100.00;98706.03;4217750;28;20313;-67
2023/01/16 03:09:00;;;;;;;12.73;5.73;;;;;;;2.13;100.00;98703.91;4217703;28;20975;-66
2023/01/16 03:11:29;;;;;;;11.73;5.77;;;;;;;2.09;100.00;98706.81;4220451;28;20251;-67
2023/01/16 03:14:15;;;;;;;13.60;6.47;;;;;;;2.04;100.00;98706.41;4209837;28;20368;-67
2023/01/16 03:16:42;;;;;;;13.17;6.40;;;;;;;2.02;100.00;98710.13;4222347;28;20376;-66
2023/01/16 03:19:24;;;;;;;11.27;6.30;;;;;;;2.06;100.00;98706.25;4230394;28;20718;-68
2023/01/16 03:22:06;;;;;;;14.03;6.40;;;;;;;1.98;100.00;98704.28;4196505;28;20232;-66
2023/01/16 03:25:00;;;;;;;13.37;5.93;;;;;;;1.97;100.00;98710.50;4242114;28;20299;-67
2023/01/16 03:27:49;;;;;;;12.47;6.10;;;;;;;1.90;100.00;98704.97;4209663;28;21197;-68
2023/01/16 03:30:33;;;;;;;13.33;6.17;;;;;;;1.89;100.00;98707.72;4212752;28;20372;-65
2023/01/16 03:33:05;;;;;;;11.63;6.37;;;;;;;1.78;100.00;98708.66;4220361;28;20230;-66
2023/01/16 03:35:36;;;;;;;12.80;6.33;;;;;;;1.78;100.00;98711.28;4208326;28;20780;-67
2023/01/16 03:38:09;;;;;;;14.27;6.70;;;;;;;1.73;100.00;98708.19;4206971;28;20238;-65
2023/01/16 03:40:40;;;;;;;15.17;7.27;;;;;;;1.70;100.00;98716.34;4201044;28;20231;-66
2023/01/16 03:43:10;;;;;;;16.83;6.70;;;;;;;1.75;100.00;98710.69;4209168;28;20231;-68
2023/01/16 03:45:45;;;;;;;15.60;7.20;;;;;;;1.79;100.00;98717.34;4212262;28;20476;-65
2023/01/16 03:48:22;;;;;;;15.67;7.30;;;;;;;1.74;100.00;98716.91;4219751;28;20239;-65
2023/01/16 03:51:05;;;;;;;15.03;7.20;;;;;;;1.71;100.00;98707.53;4209768;28;20462;-66
2023/01/16 03:53:38;;;;;;;19.60;7.53;;;;;;;1.81;100.00;98704.94;4211429;28;22663;-66
2023/01/16 03:56:11;;;;;;;11.50;6.67;;;;;;;1.76;100.00;98712.38;4213701;28;20834;-66
2023/01/16 03:58:49;;;;;;;18.60;7.20;;;;;;;1.72;100.00;98703.09;4214528;28;20319;-67
2023/01/16 04:01:33;;;;;;;12.77;6.63;;;;;;;1.72;100.00;98700.47;4217611;28;21755;-66
2023/01/16 04:04:27;;;;;;;14.67;6.90;;;;;;;1.76;100.00;98707.94;4214528;28;20227;-65
2023/01/16 04:07:03;;;;;;;21.87;7.20;;;;;;;1.67;100.00;98704.31;4210695;28;21463;-64
2023/01/16 04:09:57;;;;;;;17.80;8.07;;;;;;;1.67;100.00;98708.75;4203488;28;21557;-66
2023/01/16 04:12:33;;;;;;;13.47;7.07;;;;;;;1.65;100.00;98698.38;4212697;28;22981;-66
2023/01/16 04:15:05;;;;;;;16.67;7.40;;;;;;;1.64;100.00;98709.00;4222859;28;20431;-65
2023/01/16 04:17:37;;;;;;;13.87;7.10;;;;;;;1.67;100.00;98708.75;4213364;28;20236;-67
2023/01/16 04:20:06;;;;;;;14.93;7.57;;;;;;;1.66;100.00;98707.06;4215306;28;20230;-68
2023/01/16 04:22:33;;;;;;;15.40;8.10;;;;;;;1.63;100.00;98707.34;4225697;28;23697;-68
2023/01/16 04:25:06;;;;;;;16.03;7.03;;;;;;;1.69;100.00;98706.81;4201105;28;20291;-68
2023/01/16 04:27:32;;;;;;;15.33;6.37;;;;;;;1.72;100.00;98710.97;4207718;28;20301;-64
2023/01/16 04:29:59;;;;;;;16.10;8.13;;;;;;;1.73;100.00;98708.19;4233054;28;20245;-67
2023/01/16 04:32:25;;;;;;;16.87;7.57;;;;;;;1.71;100.00;98706.66;4215138;28;20317;-67
2023/01/16 04:34:52;;;;;;;15.20;7.17;;;;;;;1.61;100.00;98704.81;4225908;28;20235;-67
2023/01/16 04:37:19;;;;;;;13.93;7.70;;;;;;;1.62;100.00;98709.13;4222935;28;20413;-67
2023/01/16 04:39:47;;;;;;;15.67;7.20;;;;;;;1.62;100.00;98714.38;4233028;28;20232;-65
2023/01/16 04:42:14;;;;;;;15.83;7.73;;;;;;;1.62;100.00;98710.94;4215236;28;20388;-68
2023/01/16 04:44:40;;;;;;;15.77;7.57;;;;;;;1.62;100.00;98714.38;4225900;28;20688;-66
2023/01/16 04:47:07;;;;;;;17.57;7.43;;;;;;;1.65;100.00;98724.59;4218218;28;21244;-67
2023/01/16 04:49:34;;;;;;;16.77;8.13;;;;;;;1.58;100.00;98723.44;4220621;28;20410;-69
2023/01/16 04:52:00;;;;;;;12.60;6.77;;;;;;;1.58;100.00;98723.44;4212256;28;23132;-67
2023/01/16 04:54:27;;;;;;;14.07;7.70;;;;;;;1.51;100.00;98727.56;4223488;28;21178;-68
2023/01/16 04:56:54;;;;;;;18.57;7.90;;;;;;;1.53;100.00;98724.81;4231908;28;20542;-65
2023/01/16 04:59:20;;;;;;;15.87;7.87;;;;;;;1.54;100.00;98726.47;4213353;28;20247;-66
2023/01/16 05:01:47;;;;;;;13.57;6.83;;;;;;;1.56;100.00;98728.00;4215712;28;20293;-63
2023/01/16 05:04:15;;;;;;;13.90;7.30;;;;;;;1.52;100.00;98726.56;4217450;28;20527;-67
2023/01/16 05:06:42;;;;;;;14.73;7.07;;;;;;;1.44;100.00;98723.78;4204256;28;20240;-66
2023/01/16 05:09:08;;;;;;;14.70;7.47;;;;;;;1.40;100.00;98720.59;4224485;28;20226;-65
2023/01/16 05:11:35;;;;;;;15.17;6.73;;;;;;;1.46;100.00;98721.88;4217107;28;20235;-67
2023/01/16 05:14:05;;;;;;;14.97;7.17;;;;;;;1.53;100.00;98717.78;4214592;28;20300;-65
2023/01/16 05:16:31;;;;;;;11.53;6.53;;;;;;;1.46;100.00;98721.88;4213293;28;26093;-65
2023/01/16 05:18:59;;;;;;;13.37;7.13;;;;;;;1.52;100.00;98720.50;4217667;28;20758;-68
2023/01/16 05:21:25;;;;;;;12.90;6.27;;;;;;;1.51;100.00;98714.44;4218442;28;20706;-64
2023/01/16 05:23:52;;;;;;;11.63;6.20;;;;;;;1.53;100.00;98711.72;4234199;28;20372;-66
2023/01/16 05:26:19;;;;;;;11.43;5.90;;;;;;;1.43;100.00;98712.47;4211577;28;22827;-68
2023/01/16 05:28:45;;;;;;;16.70;6.47;;;;;;;1.49;100.00;98705.88;4223702;28;21793;-68
2023/01/16 05:31:12;;;;;;;13.50;6.50;;;;;;;1.45;100.00;98710.56;4215637;28;20710;-66
2023/01/16 05:33:38;;;;;;;16.57;6.53;;;;;;;1.41;100.00;98708.34;4223542;28;20609;-64
2023/01/16 05:36:05;;;;;;;15.47;6.10;;;;;;;1.38;100.00;98705.94;4212639;28;21526;-68
2023/01/16 05:38:32;;;;;;;12.17;6.40;;;;;;;1.45;100.00;98699.22;4215836;28;20318;-66
2023/01/16 05:40:58;;;;;;;13.63;6.77;;;;;;;1.41;100.00;98705.72;4222518;28;20314;-67
2023/01/16 05:43:26;;;;;;;14.33;6.33;;;;;;;1.42;100.00;98704.75;4225739;28;20298;-65
2023/01/16 05:45:52;;;;;;;13.07;6.67;;;;;;;1.43;100.00;98698.56;4204694;28;20271;-65
2023/01/16 05:48:19;;;;;;;15.80;6.70;;;;;;;1.37;100.00;98706.94;4220923;28;23573;-66
2023/01/16 05:50:46;;;;;;;12.87;5.97;;;;;;;1.37;100.00;98693.81;4222080;28;21491;-65
2023/01/16 05:53:12;;;;;;;12.40;5.20;;;;;;;1.34;100.00;98702.78;4216396;28;20403;-68
2023/01/16 05:55:42;;;;;;;11.73;5.70;;;;;;;1.25;100.00;98699.13;4216885;28;20228;-64
2023/01/16 05:58:10;;;;;;;13.83;6.40;;;;;;;1.34;100.00;98696.72;4238918;28;20231;-65
2023/01/16 06:00:37;;;;;;;11.13;6.00;;;;;;;1.39;100.00;98699.78;4226602;28;20303;-69
2023/01/16 06:03:04;;;;;;;13.67;5.87;;;;;;;1.39;100.00;98694.53;4234301;28;20513;-65
2023/01/16 06:05:31;;;;;;;14.03;5.80;;;;;;;1.38;100.00;98687.59;4215664;28;20390;-73
2023/01/16 06:07:57;;;;;;;15.67;5.60;;;;;;;1.29;100.00;98683.13;4222842;28;20348;-66
2023/01/16 06:10:25;;;;;;;11.47;5.67;;;;;;;1.25;100.00;98686.03;4220950;28;20318;-71
2023/01/16 06:12:52;;;;;;;12.00;5.37;;;;;;;1.24;100.00;98678.28;4249071;28;20455;-68
2023/01/16 06:15:19;;;;;;;13.47;5.70;;;;;;;1.25;100.00;98685.22;4233210;28;20240;-77
2023/01/16 06:17:46;;;;;;;10.73;5.30;;;;;;;1.31;100.00;98686.47;4221821;28;20278;-73
2023/01/16 06:20:13;;;;;;;12.37;5.30;;;;;;;1.34;100.00;98694.09;4231344;28;22482;-71
2023/01/16 06:22:41;;;;;;;11.93;5.90;;;;;;;1.33;100.00;98695.03;4254451;28;21552;-72
2023/01/16 06:25:09;;;;;;;12.97;5.93;;;;;;;1.34;100.00;98694.09;4228815;28;21242;-72
2023/01/16 06:27:36;;;;;;;12.53;5.90;;;;;;;1.37;100.00;98691.19;4224667;28;20238;-73
2023/01/16 06:30:04;;;;;;;9.30;5.10;;;;;;;1.33;100.00;98695.84;4220912;28;20588;-69
2023/01/16 06:32:31;;;;;;;11.40;5.67;;;;;;;1.34;100.00;98696.72;4230054;28;20231;-70
2023/01/16 06:34:57;;;;;;;12.20;5.47;;;;;;;1.35;100.00;98693.13;4220669;28;21805;-70
2023/01/16 06:37:24;;;;;;;13.53;5.67;;;;;;;1.39;100.00;98689.28;4219291;28;20232;-69
2023/01/16 06:39:51;;;;;;;14.13;5.73;;;;;;;1.37;100.00;98685.97;4218440;28;20227;-71
2023/01/16 06:42:17;;;;;;;14.20;5.43;;;;;;;1.40;100.00;98690.94;4194944;28;20303;-69
2023/01/16 06:44:44;;;;;;;12.10;5.67;;;;;;;1.42;100.00;98699.50;4216526;28;20232;-67
2023/01/16 06:47:10;;;;;;;12.20;5.00;;;;;;;1.41;100.00;98690.81;4226338;28;20416;-70
2023/01/16 06:49:37;;;;;;;11.70;5.47;;;;;;;1.42;100.00;98694.25;4205358;28;20235;-68
2023/01/16 06:52:04;;;;;;;13.53;5.77;;;;;;;1.41;100.00;98692.59;4211761;28;21411;-70
2023/01/16 06:54:31;;;;;;;14.47;4.73;;;;;;;1.48;100.00;98694.56;4222821;28;21362;-70
2023/01/16 06:56:57;;;;;;;14.60;5.60;;;;;;;1.51;100.00;98701.34;4228551;28;20240;-66
2023/01/16 06:59:24;;;;;;;14.17;5.27;;;;;;;1.49;100.00;98695.41;4209069;28;20311;-69
2023/01/16 07:01:50;;;;;;;11.57;4.87;;;;;;;1.53;100.00;98693.34;4224116;28;25050;-69
2023/01/16 07:04:17;;;;;;;12.60;5.30;;;;;;;1.41;100.00;98703.09;4213215;28;20247;-69
2023/01/16 07:06:44;;;;;;;15.10;5.80;;;;;;;1.47;100.00;98694.69;4213202;28;24990;-70
2023/01/16 07:09:11;;;;;;;9.80;4.90;;;;;;;1.55;100.00;98694.88;4210687;28;21480;-68
2023/01/16 07:11:38;;;;;;;12.00;5.13;;;;;;;1.54;100.00;98698.44;4213389;28;20235;-69
2023/01/16 07:22:43;;;;;;;10.77;4.67;;;;;;;1.67;100.00;98695.63;4222792;28;22042;-69
2023/01/16 07:25:14;;;;;;;13.43;5.33;;;;;;;1.76;100.00;98691.41;4215031;28;20754;-68
2023/01/16 07:27:41;;;;;;;10.00;4.50;;;;;;;1.80;100.00;98693.63;4215648;28;21197;-67
2023/01/16 07:30:08;;;;;;;9.87;4.67;;;;;;;1.77;100.00;98688.63;4210577;28;20509;-70
2023/01/16 07:32:35;;;;;;;9.80;4.63;;;;;;;1.72;100.00;98690.00;4237021;28;20232;-71
2023/01/16 07:35:01;;;;;;;12.67;4.83;;;;;;;1.81;100.00;98686.56;4233487;28;20244;-69
2023/01/16 07:37:28;;;;;;;17.00;5.63;;;;;;;1.86;100.00;98693.06;4213813;28;20318;-72
2023/01/16 07:39:55;;;;;;;14.47;5.40;;;;;;;1.88;100.00;98695.56;4232300;28;20303;-69
2023/01/16 07:42:21;;;;;;;14.70;5.73;;;;;;;1.97;100.00;98689.53;4219183;28;21299;-68
2023/01/16 07:44:48;;;;;;;11.13;4.43;;;;;;;2.01;100.00;98688.28;4213220;28;21552;-70
2023/01/16 07:47:15;;;;;;;10.40;4.43;;;;;;;2.07;100.00;98684.31;4221619;28;20377;-68
2023/01/16 07:49:41;;;;;;;12.60;4.70;;;;;;;2.08;100.00;98681.56;4227053;28;22747;-68
2023/01/16 07:52:08;;;;;;;13.63;5.30;;;;;;;2.23;100.00;98683.81;4224598;28;20316;-68
2023/01/16 07:54:36;;;;;;;9.10;4.70;;;;;;;2.03;100.00;98683.72;4212260;28;20599;-70
2023/01/16 07:57:02;;;;;;;10.90;4.70;;;;;;;2.10;100.00;98676.97;4231127;28;20243;-69
2023/01/16 07:59:29;;;;;;;11.40;4.90;;;;;;;2.33;100.00;98687.25;4226228;28;20978;-71
2023/01/16 08:01:56;;;;;;;12.33;4.57;;;;;;;2.36;100.00;98684.34;4216038;28;20235;-69
2023/01/16 08:04:22;;;;;;;13.10;4.90;;;;;;;2.47;100.00;98673.72;4275154;28;20408;-69
2023/01/16 08:06:49;;;;;;;12.17;4.13;;;;;;;2.61;98.87;98674.31;4233075;28;20594;-71
2023/01/16 08:09:16;;;;;;;12.10;5.13;;;;;;;2.59;97.95;98674.44;4221837;28;20241;-70
2023/01/16 08:11:46;;;;;;;12.40;4.47;;;;;;;2.65;98.42;98673.06;4218491;28;20768;-70
2023/01/16 08:14:13;;;;;;;11.17;4.47;;;;;;;2.69;98.02;98669.19;4231700;28;20232;-70
2023/01/16 08:16:40;;;;;;;11.97;4.87;;;;;;;2.54;98.14;98666.97;4223565;28;20252;-71
2023/01/16 08:19:07;;;;;;;12.53;4.87;;;;;;;2.59;98.15;98663.94;4212579;28;20492;-71
2023/01/16 08:21:34;;;;;;;11.40;4.60;;;;;;;2.67;97.96;98663.22;4236695;28;20284;-70
2023/01/16 08:24:00;;;;;;;11.67;4.40;;;;;;;2.67;97.73;98666.72;4231538;28;20507;-69
2023/01/16 08:26:28;;;;;;;10.13;4.33;;;;;;;2.66;97.10;98669.47;4219889;28;20414;-69
2023/01/16 08:28:55;;;;;;;9.80;3.70;;;;;;;2.66;97.16;98664.22;4231292;28;20239;-68
2023/01/16 08:31:22;;;;;;;15.80;4.33;;;;;;;2.65;97.66;98667.81;4226292;28;20240;-70
2023/01/16 08:33:49;;;;;;;11.83;4.10;;;;;;;2.77;96.96;98660.63;4211050;28;20310;-69
2023/01/16 08:36:16;;;;;;;9.73;4.20;;;;;;;2.80;96.48;98668.22;4235880;28;20265;-71
2023/01/16 08:38:43;;;;;;;9.17;4.03;;;;;;;2.89;96.08;98664.75;4241526;28;22934;-71
2023/01/16 08:51:21;;;;;;;8.97;3.87;;;;;;;3.02;96.16;98664.44;4216250;28;26836;-70
2023/01/16 08:52:15;;;;;;;7.37;4.10;;;;;;;4.26;88.00;98668.56;4231314;28;20235;-72
2023/01/16 08:54:43;;;;;;;13.93;4.33;;;;;;;4.23;87.27;98664.41;4221325;28;20289;-70
2023/01/16 08:57:10;;;;;;;14.60;4.70;;;;;;;4.49;87.25;98671.56;4207214;28;20255;-68
2023/01/16 08:59:36;;;;;;;10.00;4.20;;;;;;;4.70;86.32;98658.09;4208182;28;21571;-69
2023/01/16 09:02:04;;;;;;;9.93;3.93;;;;;;;4.81;85.27;98663.16;4223629;28;20368;-71
2023/01/16 09:04:31;;;;;;;16.10;4.60;;;;;;;4.96;83.66;98667.88;4214810;28;20262;-70
2023/01/16 09:06:58;;;;;;;10.77;4.53;;;;;;;5.27;82.44;98665.66;4221416;28;20659;-67
2023/01/16 09:09:25;;;;;;;10.80;4.63;;;;;;;5.81;80.90;98660.16;4234295;28;20239;-67
2023/01/16 09:14:40;;;;;;;13.80;5.83;;;;;;;5.98;77.37;98654.00;4233539;28;20284;-67
2023/01/16 09:17:07;;;;;;;10.27;4.90;;;;;;;5.80;77.83;98656.69;4245280;28;20323;-70
2023/01/16 09:19:34;;;;;;;13.90;7.17;;;;;;;5.41;79.70;98646.59;4238252;28;20406;-69
2023/01/16 09:22:02;;;;;;;12.00;5.33;;;;;;;5.33;81.88;98643.09;4222319;28;20483;-65
2023/01/16 09:24:28;;;;;;;12.70;4.23;;;;;;;5.16;81.65;98642.16;4220655;28;21848;-66
2023/01/16 09:26:55;;;;;;;10.63;4.10;;;;;;;5.00;82.09;98640.22;4212531;28;20233;-65
2023/01/16 09:29:23;;;;;;;11.13;4.67;;;;;;;4.86;82.36;98641.59;4214189;28;20234;-65
2023/01/16 09:31:49;;;;;;;10.87;4.67;;;;;;;4.81;83.85;98628.06;4222057;28;20405;-69
2023/01/16 09:34:16;;;;;;;14.33;5.27;;;;;;;4.73;83.57;98625.34;4224319;28;20406;-67
2023/01/16 09:36:43;;;;;;;13.53;4.90;;;;;;;4.72;83.45;98618.44;4221924;28;20235;-46
2023/01/16 09:39:09;;;;;;;11.93;5.20;;;;;;;4.90;84.09;98621.06;4227556;28;22768;-71
2023/01/16 09:44:29;;;;;;;11.87;5.43;;;;;;;5.01;83.84;98613.72;4234710;28;21624;-66
2023/01/16 09:46:58;;;;;;;15.90;5.67;;;;;;;5.39;82.16;98616.91;4212705;28;20318;-72
2023/01/16 09:49:28;;;;;;;12.20;5.17;;;;;;;5.83;80.21;98621.22;4246671;28;20249;-73
2023/01/16 10:00:27;;;;;;;14.40;5.20;;;;;;;5.36;80.03;98613.75;4232378;28;20229;-69
2023/01/16 10:02:54;;;;;;;11.37;5.40;;;;;;;5.48;80.21;98601.97;4203138;28;20233;-69
2023/01/16 10:05:22;;;;;;;14.20;5.37;;;;;;;5.65;79.35;98602.84;4233701;28;20255;-68
2023/01/16 10:08:32;;;;;;;16.53;5.60;;;;;;;5.63;79.64;98602.19;4249157;28;21831;-72
2023/01/16 10:11:16;;;;;;;16.53;6.90;;;;;;;5.75;80.14;98595.63;4178147;28;20244;-71
2023/01/16 10:13:53;;;;;;;15.40;7.10;;;;;;;5.94;78.03;98602.47;4243069;28;21909;-69
2023/01/16 10:16:42;;;;;;;12.30;6.17;;;;;;;5.75;78.71;98611.47;4214135;28;20315;-69
2023/01/16 10:19:20;;;;;;;13.27;5.87;;;;;;;5.29;80.38;98601.22;4236906;28;20719;-69
2023/01/16 10:22:00;;;;;;;11.47;5.50;;;;;;;5.23;81.85;98590.47;4237213;28;21380;-67
2023/01/16 10:24:39;;;;;;;12.10;5.93;;;;;;;5.13;82.71;98580.03;4215291;28;20239;-70
2023/01/16 10:27:29;;;;;;;14.37;6.27;;;;;;;5.03;82.83;98581.91;4239025;28;20423;-68
2023/01/16 10:30:07;;;;;;;14.50;6.67;;;;;;;4.91;84.16;98564.72;4221313;28;20414;-71
2023/01/16 10:32:36;;;;;;;13.80;6.50;;;;;;;5.00;83.98;98564.59;4237538;28;20258;-72
2023/01/16 10:35:13;;;;;;;17.10;7.07;;;;;;;4.92;84.35;98551.41;4234511;28;20236;-70
2023/01/16 10:37:42;;;;;;;14.70;7.00;;;;;;;5.05;84.18;98554.41;4228427;28;21822;-72
2023/01/16 10:40:25;;;;;;;14.73;7.60;;;;;;;5.04;83.36;98555.41;4218619;28;21251;-59
2023/01/16 10:49:25;;;;;;;15.27;7.03;;;;;;;4.90;84.36;98542.81;4247263;28;20241;-67
2023/01/16 10:51:35;;;;;;;12.77;6.97;;;;;;;4.56;86.91;98525.13;4241282;28;20365;-74
2023/01/16 10:54:02;;;;;;;16.13;7.20;;;;;;;4.43;87.49;98532.63;4218514;28;20246;-72
2023/01/16 10:56:32;;;;;;;15.17;7.10;;;;;;;4.43;88.33;98519.44;4258941;28;21335;-71
2023/01/16 10:58:58;;;;;;;13.80;6.53;;;;;;;4.37;88.47;98514.78;4233130;28;21822;-71
2023/01/16 11:01:25;;;;;;;15.40;7.60;;;;;;;4.44;89.04;98506.09;4226768;28;20232;-72
2023/01/16 11:03:57;;;;;;;13.00;6.47;;;;;;;4.34;88.94;98499.28;4220190;28;20884;-72
2023/01/16 11:06:30;;;;;;;17.67;6.87;;;;;;;4.37;88.78;98498.97;4216646;28;20220;-72
2023/01/16 11:09:02;;;;;;;14.90;7.00;;;;;;;4.41;89.15;98500.34;4212757;28;21722;-73
2023/01/16 11:20:19;;;;;;;16.83;7.97;;;;;;;4.45;90.44;98496.41;4233988;28;20236;-72
2023/01/16 11:22:59;;;;;;;17.33;7.63;;;;;;;4.48;91.32;98487.38;4209301;28;20237;-70
2023/01/16 11:25:27;;;;;;;20.00;8.27;;;;;;;4.50;89.56;98485.44;4213628;28;21295;-71
2023/01/16 11:27:55;;;;;;;17.80;7.57;;;;;;;4.43;90.09;98478.13;4223130;28;26073;-71
2023/01/16 11:30:28;;;;;;;18.83;7.90;;;;;;;4.33;91.06;98476.56;4235561;28;26330;-73
2023/01/16 11:32:56;;;;;;;17.40;7.90;;;;;;;4.30;91.46;98480.31;4219144;28;20447;-72
2023/01/16 11:35:30;;;;;;;18.87;8.00;;;;;;;4.31;91.33;98474.09;4210371;28;20382;-71
2023/01/16 11:37:58;;;;;;;20.00;7.50;;;;;;;4.35;90.11;98471.97;4224874;28;20318;-73
2023/01/16 11:40:27;;;;;;;15.97;7.03;;;;;;;4.25;89.04;98464.16;4219129;28;25698;-71
2023/01/16 11:48:40;;;;;;;16.80;7.83;;;;;;;3.90;90.76;98449.25;4218374;28;23290;-71
2023/01/16 11:51:12;;;;;;;15.83;7.20;;;;;;;3.87;90.95;98436.41;4224312;28;20247;-71
2023/01/16 11:53:38;;;;;;;17.47;7.73;;;;;;;3.84;90.75;98420.91;4224084;28;20242;-71
2023/01/16 11:56:11;;;;;;;17.37;7.33;;;;;;;3.74;91.80;98423.63;4228838;28;20788;-72
2023/01/16 11:59:08;;;;;;;19.27;7.67;;;;;;;3.79;92.50;98416.94;4223201;28;20240;-71
2023/01/16 12:08:06;;;;;;;18.57;7.93;;;;;;;3.75;93.77;98407.69;4215943;28;23673;-68
2023/01/16 12:10:52;;;;;;;20.17;8.60;;;;;;;3.70;94.69;98401.22;4219673;28;21761;-69
2023/01/16 12:16:20;;;;;;;17.50;8.20;;;;;;;3.76;93.98;98404.06;4221900;28;20239;-71
2023/01/16 12:19:14;;;;;;;18.83;8.37;;;;;;;3.77;94.45;98397.84;4219028;28;20242;-70
2023/01/16 12:21:49;;;;;;;21.30;8.57;;;;;;;3.91;94.11;98403.53;4233324;28;23124;-70
2023/01/16 12:24:28;;;;;;;18.27;8.50;;;;;;;3.90;93.27;98394.00;4213264;28;20231;-73
2023/01/16 12:27:11;;;;;;;19.87;9.10;;;;;;;3.78;93.77;98394.22;4219610;28;20231;-72
2023/01/16 12:29:42;;;;;;;21.80;8.63;;;;;;;3.87;94.53;98395.13;4220504;28;20233;-68
2023/01/16 12:32:34;;;;;;;18.07;9.10;;;;;;;3.93;94.66;98399.78;4218086;28;21256;-71
2023/01/16 12:35:06;;;;;;;21.17;9.80;;;;;;;4.01;94.62;98397.22;4230190;28;21423;-73
2023/01/16 12:38:03;;;;;;;20.73;9.60;;;;;;;3.86;94.45;98392.66;4229651;28;25538;-72
2023/01/16 12:43:17;;;;;;;22.93;9.63;;;;;;;3.87;95.15;98386.41;4210210;28;20254;-70
2023/01/16 12:43:52;;;;;;;24.80;10.17;;;;;;;3.95;95.07;98381.19;4227115;28;25431;-68
2023/01/16 12:46:53;;;;;;;23.13;9.83;;;;;;;3.85;95.65;98373.41;4217483;28;21361;-69
2023/01/16 12:49:44;;;;;;;23.77;10.50;;;;;;;3.76;96.44;98369.88;4220405;28;20275;-69
2023/01/16 12:52:36;;;;;;;23.00;11.40;;;;;;;3.78;96.29;98367.94;4233063;28;20242;-71
2023/01/16 12:55:28;;;;;;;21.97;11.30;;;;;;;3.72;97.88;98368.56;4221757;28;20223;-68